sensor_id;sensor_type;location;lat;lon;timestamp;temperature;humidity
74940;HTU21D;63505;45.226;37.908;2023-03-01T00:02:06;5.26;74.10
74940;HTU21D;63505;45.226;37.908;2023-03-01T00:04:32;5.20;74.12
74940;HTU21D;63505;45.226;37.908;2023-03-01T00:06:58;5.13;74.15
74940;HTU21D;63505;45.226;37.908;2023-03-01T00:09:24;5.05;74.15
74940;HTU21D;63505;45.226;37.908;2023-03-01T00:11:50;4.93;74.21
74940;HTU21D;63505;45.226;37.908;2023-03-01T00:14:15;4.84;74.29
74940;HTU21D;63505;45.226;37.908;2023-03-01T00:16:44;4.74;74.34
74940;HTU21D;63505;45.226;37.908;2023-03-01T00:19:12;4.64;74.41
74940;HTU21D;63505;45.226;37.908;2023-03-01T00:21:39;4.56;74.47
74940;HTU21D;63505;45.226;37.908;2023-03-01T00:24:06;4.46;74.54
74940;HTU21D;63505;45.226;37.908;2023-03-01T00:26:32;4.41;74.55
74940;HTU21D;63505;45.226;37.908;2023-03-01T00:28:59;4.29;74.57
74940;HTU21D;63505;45.226;37.908;2023-03-01T00:31:28;4.17;74.65
74940;HTU21D;63505;45.226;37.908;2023-03-01T00:33:57;4.12;74.76
74940;HTU21D;63505;45.226;37.908;2023-03-01T00:36:25;4.01;74.73
74940;HTU21D;63505;45.226;37.908;2023-03-01T00:38:51;3.97;74.83
74940;HTU21D;63505;45.226;37.908;2023-03-01T00:41:19;3.90;74.80
74940;HTU21D;63505;45.226;37.908;2023-03-01T00:43:46;3.85;74.85
74940;HTU21D;63505;45.226;37.908;2023-03-01T00:46:15;3.77;74.80
74940;HTU21D;63505;45.226;37.908;2023-03-01T00:48:41;3.68;74.84
74940;HTU21D;63505;45.226;37.908;2023-03-01T00:51:10;3.56;74.89
74940;HTU21D;63505;45.226;37.908;2023-03-01T00:53:37;3.44;75.02
74940;HTU21D;63505;45.226;37.908;2023-03-01T00:56:04;3.36;75.16
74940;HTU21D;63505;45.226;37.908;2023-03-01T00:58:30;3.38;75.20
74940;HTU21D;63505;45.226;37.908;2023-03-01T01:00:57;3.40;75.15
74940;HTU21D;63505;45.226;37.908;2023-03-01T01:03:23;3.40;75.10
74940;HTU21D;63505;45.226;37.908;2023-03-01T01:05:51;3.40;75.05
74940;HTU21D;63505;45.226;37.908;2023-03-01T01:08:18;3.40;75.02
74940;HTU21D;63505;45.226;37.908;2023-03-01T01:10:46;3.41;75.02
74940;HTU21D;63505;45.226;37.908;2023-03-01T01:13:14;3.42;74.96
74940;HTU21D;63505;45.226;37.908;2023-03-01T01:15:40;3.40;74.95
74940;HTU21D;63505;45.226;37.908;2023-03-01T01:18:06;3.36;74.95
74940;HTU21D;63505;45.226;37.908;2023-03-01T01:20:32;3.34;74.99
74940;HTU21D;63505;45.226;37.908;2023-03-01T01:23:00;3.27;74.93
74940;HTU21D;63505;45.226;37.908;2023-03-01T01:25:26;3.26;75.08
74940;HTU21D;63505;45.226;37.908;2023-03-01T01:27:52;3.20;75.02
74940;HTU21D;63505;45.226;37.908;2023-03-01T01:30:18;3.13;75.18
74940;HTU21D;63505;45.226;37.908;2023-03-01T01:32:44;3.11;75.25
74940;HTU21D;63505;45.226;37.908;2023-03-01T01:35:10;3.10;75.28
74940;HTU21D;63505;45.226;37.908;2023-03-01T01:37:36;3.12;75.27
74940;HTU21D;63505;45.226;37.908;2023-03-01T01:40:02;3.12;75.25
74940;HTU21D;63505;45.226;37.908;2023-03-01T01:42:31;3.05;75.19
74940;HTU21D;63505;45.226;37.908;2023-03-01T01:47:50;2.94;75.48
74940;HTU21D;63505;45.226;37.908;2023-03-01T01:50:17;2.95;75.48
74940;HTU21D;63505;45.226;37.908;2023-03-01T01:52:45;2.95;75.46
74940;HTU21D;63505;45.226;37.908;2023-03-01T01:55:19;2.96;75.48
74940;HTU21D;63505;45.226;37.908;2023-03-01T01:57:53;2.95;75.47
74940;HTU21D;63505;45.226;37.908;2023-03-01T02:00:24;2.94;75.38
74940;HTU21D;63505;45.226;37.908;2023-03-01T02:02:54;2.89;75.42
74940;HTU21D;63505;45.226;37.908;2023-03-01T02:05:42;2.91;75.44
74940;HTU21D;63505;45.226;37.908;2023-03-01T02:08:11;2.86;75.36
74940;HTU21D;63505;45.226;37.908;2023-03-01T02:10:39;2.75;75.47
74940;HTU21D;63505;45.226;37.908;2023-03-01T02:13:06;2.69;75.63
74940;HTU21D;63505;45.226;37.908;2023-03-01T02:15:37;2.70;75.70
74940;HTU21D;63505;45.226;37.908;2023-03-01T02:18:05;2.70;75.65
74940;HTU21D;63505;45.226;37.908;2023-03-01T02:23:22;2.68;75.76
74940;HTU21D;63505;45.226;37.908;2023-03-01T02:28:50;2.60;75.76
74940;HTU21D;63505;45.226;37.908;2023-03-01T02:31:18;2.61;76.02
74940;HTU21D;63505;45.226;37.908;2023-03-01T02:34:06;2.67;76.02
74940;HTU21D;63505;45.226;37.908;2023-03-01T02:36:38;2.70;75.97
74940;HTU21D;63505;45.226;37.908;2023-03-01T02:39:06;2.72;75.93
74940;HTU21D;63505;45.226;37.908;2023-03-01T02:41:37;2.74;75.86
74940;HTU21D;63505;45.226;37.908;2023-03-01T02:44:04;2.70;75.88
74940;HTU21D;63505;45.226;37.908;2023-03-01T02:46:31;2.67;76.05
74940;HTU21D;63505;45.226;37.908;2023-03-01T02:48:58;2.66;76.08
74940;HTU21D;63505;45.226;37.908;2023-03-01T02:56:44;2.53;76.45
74940;HTU21D;63505;45.226;37.908;2023-03-01T02:59:19;2.55;76.71
74940;HTU21D;63505;45.226;37.908;2023-03-01T03:01:45;2.58;76.71
74940;HTU21D;63505;45.226;37.908;2023-03-01T03:04:15;2.58;76.70
74940;HTU21D;63505;45.226;37.908;2023-03-01T03:06:50;2.56;76.95
74940;HTU21D;63505;45.226;37.908;2023-03-01T03:09:17;2.57;77.21
74940;HTU21D;63505;45.226;37.908;2023-03-01T03:11:44;2.61;77.39
74940;HTU21D;63505;45.226;37.908;2023-03-01T03:14:13;2.66;77.34
74940;HTU21D;63505;45.226;37.908;2023-03-01T03:16:43;2.68;77.31
74940;HTU21D;63505;45.226;37.908;2023-03-01T03:19:10;2.69;77.24
74940;HTU21D;63505;45.226;37.908;2023-03-01T03:21:36;2.67;77.34
74940;HTU21D;63505;45.226;37.908;2023-03-01T03:24:02;2.62;77.57
74940;HTU21D;63505;45.226;37.908;2023-03-01T03:26:29;2.61;77.79
74940;HTU21D;63505;45.226;37.908;2023-03-01T03:28:55;2.57;77.94
74940;HTU21D;63505;45.226;37.908;2023-03-01T03:31:22;2.54;78.36
74940;HTU21D;63505;45.226;37.908;2023-03-01T03:33:48;2.54;78.62
74940;HTU21D;63505;45.226;37.908;2023-03-01T03:36:20;2.55;78.74
74940;HTU21D;63505;45.226;37.908;2023-03-01T03:38:46;2.57;78.73
74940;HTU21D;63505;45.226;37.908;2023-03-01T03:41:12;2.56;78.67
74940;HTU21D;63505;45.226;37.908;2023-03-01T03:43:40;2.55;78.71
74940;HTU21D;63505;45.226;37.908;2023-03-01T03:46:08;2.54;78.80
74940;HTU21D;63505;45.226;37.908;2023-03-01T03:48:36;2.49;78.80
74940;HTU21D;63505;45.226;37.908;2023-03-01T03:51:02;2.50;78.96
74940;HTU21D;63505;45.226;37.908;2023-03-01T03:53:31;2.52;78.93
74940;HTU21D;63505;45.226;37.908;2023-03-01T03:55:57;2.56;78.96
74940;HTU21D;63505;45.226;37.908;2023-03-01T03:58:25;2.55;78.97
74940;HTU21D;63505;45.226;37.908;2023-03-01T04:00:53;2.58;79.14
74940;HTU21D;63505;45.226;37.908;2023-03-01T04:03:22;2.62;79.07
74940;HTU21D;63505;45.226;37.908;2023-03-01T04:05:49;2.60;79.17
74940;HTU21D;63505;45.226;37.908;2023-03-01T04:08:22;2.66;79.26
74940;HTU21D;63505;45.226;37.908;2023-03-01T04:10:50;2.69;79.20
74940;HTU21D;63505;45.226;37.908;2023-03-01T04:13:19;2.71;79.08
74940;HTU21D;63505;45.226;37.908;2023-03-01T04:15:49;2.66;79.11
74940;HTU21D;63505;45.226;37.908;2023-03-01T04:18:17;2.61;79.40
74940;HTU21D;63505;45.226;37.908;2023-03-01T04:20:43;2.67;79.46
74940;HTU21D;63505;45.226;37.908;2023-03-01T04:23:13;2.71;79.38
74940;HTU21D;63505;45.226;37.908;2023-03-01T04:25:55;2.71;79.25
74940;HTU21D;63505;45.226;37.908;2023-03-01T04:30:54;2.72;79.15
74940;HTU21D;63505;45.226;37.908;2023-03-01T04:33:21;2.70;79.18
74940;HTU21D;63505;45.226;37.908;2023-03-01T04:35:47;2.71;79.25
74940;HTU21D;63505;45.226;37.908;2023-03-01T04:38:16;2.72;79.27
74940;HTU21D;63505;45.226;37.908;2023-03-01T04:40:42;2.72;79.27
74940;HTU21D;63505;45.226;37.908;2023-03-01T04:43:10;2.74;79.27
74940;HTU21D;63505;45.226;37.908;2023-03-01T04:45:36;2.74;79.25
74940;HTU21D;63505;45.226;37.908;2023-03-01T04:48:03;2.74;79.28
74940;HTU21D;63505;45.226;37.908;2023-03-01T04:50:29;2.73;79.21
74940;HTU21D;63505;45.226;37.908;2023-03-01T04:52:55;2.72;79.27
74940;HTU21D;63505;45.226;37.908;2023-03-01T04:55:27;2.74;79.26
74940;HTU21D;63505;45.226;37.908;2023-03-01T04:57:54;2.73;79.20
74940;HTU21D;63505;45.226;37.908;2023-03-01T05:00:21;2.71;79.25
74940;HTU21D;63505;45.226;37.908;2023-03-01T05:02:51;2.73;79.25
74940;HTU21D;63505;45.226;37.908;2023-03-01T05:05:35;2.80;79.22
74940;HTU21D;63505;45.226;37.908;2023-03-01T05:08:04;2.82;79.17
74940;HTU21D;63505;45.226;37.908;2023-03-01T05:10:32;2.85;79.11
74940;HTU21D;63505;45.226;37.908;2023-03-01T05:12:59;2.88;79.04
74940;HTU21D;63505;45.226;37.908;2023-03-01T05:15:26;2.95;79.00
74940;HTU21D;63505;45.226;37.908;2023-03-01T05:17:55;3.00;78.92
74940;HTU21D;63505;45.226;37.908;2023-03-01T05:20:24;3.00;78.87
74940;HTU21D;63505;45.226;37.908;2023-03-01T05:22:52;3.01;78.88
74940;HTU21D;63505;45.226;37.908;2023-03-01T05:25:20;3.02;78.92
74940;HTU21D;63505;45.226;37.908;2023-03-01T05:27:47;3.05;78.95
74940;HTU21D;63505;45.226;37.908;2023-03-01T05:30:14;3.10;78.92
74940;HTU21D;63505;45.226;37.908;2023-03-01T05:32:48;3.14;78.88
74940;HTU21D;63505;45.226;37.908;2023-03-01T05:35:16;3.16;78.87
74940;HTU21D;63505;45.226;37.908;2023-03-01T05:37:45;3.19;78.88
74940;HTU21D;63505;45.226;37.908;2023-03-01T05:40:14;3.25;78.83
74940;HTU21D;63505;45.226;37.908;2023-03-01T05:42:44;3.33;78.82
74940;HTU21D;63505;45.226;37.908;2023-03-01T05:45:11;3.41;78.75
74940;HTU21D;63505;45.226;37.908;2023-03-01T05:47:42;3.47;78.65
74940;HTU21D;63505;45.226;37.908;2023-03-01T05:50:17;3.53;78.51
74940;HTU21D;63505;45.226;37.908;2023-03-01T05:52:51;3.49;78.51
74940;HTU21D;63505;45.226;37.908;2023-03-01T05:55:20;3.49;78.63
74940;HTU21D;63505;45.226;37.908;2023-03-01T05:57:47;3.52;78.67
74940;HTU21D;63505;45.226;37.908;2023-03-01T06:00:16;3.48;78.69
74940;HTU21D;63505;45.226;37.908;2023-03-01T06:02:42;3.48;78.76
74940;HTU21D;63505;45.226;37.908;2023-03-01T06:05:09;3.46;78.77
74940;HTU21D;63505;45.226;37.908;2023-03-01T06:07:35;3.49;78.86
74940;HTU21D;63505;45.226;37.908;2023-03-01T06:10:05;3.55;78.90
74940;HTU21D;63505;45.226;37.908;2023-03-01T06:12:36;3.59;78.75
74940;HTU21D;63505;45.226;37.908;2023-03-01T06:15:03;3.61;78.71
74940;HTU21D;63505;45.226;37.908;2023-03-01T06:17:34;3.62;78.66
74940;HTU21D;63505;45.226;37.908;2023-03-01T06:20:12;3.64;78.63
74940;HTU21D;63505;45.226;37.908;2023-03-01T06:22:40;3.67;78.59
74940;HTU21D;63505;45.226;37.908;2023-03-01T06:25:07;3.70;78.53
74940;HTU21D;63505;45.226;37.908;2023-03-01T06:27:33;3.69;78.48
74940;HTU21D;63505;45.226;37.908;2023-03-01T06:29:59;3.67;78.44
74940;HTU21D;63505;45.226;37.908;2023-03-01T06:32:25;3.65;78.45
74940;HTU21D;63505;45.226;37.908;2023-03-01T06:34:50;3.65;78.49
74940;HTU21D;63505;45.226;37.908;2023-03-01T06:37:17;3.68;78.49
74940;HTU21D;63505;45.226;37.908;2023-03-01T06:39:43;3.73;78.38
74940;HTU21D;63505;45.226;37.908;2023-03-01T06:42:09;3.75;78.36
74940;HTU21D;63505;45.226;37.908;2023-03-01T06:44:38;3.83;78.24
74940;HTU21D;63505;45.226;37.908;2023-03-01T06:47:04;3.83;78.15
74940;HTU21D;63505;45.226;37.908;2023-03-01T06:49:29;3.85;78.14
74940;HTU21D;63505;45.226;37.908;2023-03-01T06:51:56;3.84;77.97
74940;HTU21D;63505;45.226;37.908;2023-03-01T06:54:22;3.79;77.91
74940;HTU21D;63505;45.226;37.908;2023-03-01T06:56:49;3.80;77.90
74940;HTU21D;63505;45.226;37.908;2023-03-01T06:59:16;3.86;77.81
74940;HTU21D;63505;45.226;37.908;2023-03-01T07:01:42;3.88;77.68
74940;HTU21D;63505;45.226;37.908;2023-03-01T07:04:10;3.86;77.60
74940;HTU21D;63505;45.226;37.908;2023-03-01T07:06:36;3.92;77.59
74940;HTU21D;63505;45.226;37.908;2023-03-01T07:09:02;3.93;77.44
74940;HTU21D;63505;45.226;37.908;2023-03-01T07:11:28;3.97;77.34
74940;HTU21D;63505;45.226;37.908;2023-03-01T07:13:54;4.01;77.31
74940;HTU21D;63505;45.226;37.908;2023-03-01T07:16:21;4.12;77.13
74940;HTU21D;63505;45.226;37.908;2023-03-01T07:18:47;4.15;76.95
74940;HTU21D;63505;45.226;37.908;2023-03-01T07:21:13;4.13;76.85
74940;HTU21D;63505;45.226;37.908;2023-03-01T07:23:40;4.18;76.79
74940;HTU21D;63505;45.226;37.908;2023-03-01T07:26:06;4.21;76.68
74940;HTU21D;63505;45.226;37.908;2023-03-01T07:28:32;4.30;76.59
74940;HTU21D;63505;45.226;37.908;2023-03-01T07:31:04;4.43;76.53
74940;HTU21D;63505;45.226;37.908;2023-03-01T07:33:30;4.57;76.36
74940;HTU21D;63505;45.226;37.908;2023-03-01T07:36:00;4.64;76.10
74940;HTU21D;63505;45.226;37.908;2023-03-01T07:38:28;4.68;75.89
74940;HTU21D;63505;45.226;37.908;2023-03-01T07:41:00;4.65;75.78
74940;HTU21D;63505;45.226;37.908;2023-03-01T07:43:28;4.65;75.69
74940;HTU21D;63505;45.226;37.908;2023-03-01T07:45:54;4.62;75.54
74940;HTU21D;63505;45.226;37.908;2023-03-01T07:48:20;4.61;75.49
74940;HTU21D;63505;45.226;37.908;2023-03-01T07:50:46;4.72;75.43
74940;HTU21D;63505;45.226;37.908;2023-03-01T07:53:11;4.80;75.18
74940;HTU21D;63505;45.226;37.908;2023-03-01T07:55:37;4.89;75.13
74940;HTU21D;63505;45.226;37.908;2023-03-01T07:58:03;5.07;74.94
74940;HTU21D;63505;45.226;37.908;2023-03-01T08:00:29;5.17;74.61
74940;HTU21D;63505;45.226;37.908;2023-03-01T08:02:59;5.27;74.47
74940;HTU21D;63505;45.226;37.908;2023-03-01T08:05:27;5.34;74.24
74940;HTU21D;63505;45.226;37.908;2023-03-01T08:07:54;5.36;74.09
74940;HTU21D;63505;45.226;37.908;2023-03-01T08:10:20;5.34;73.92
74940;HTU21D;63505;45.226;37.908;2023-03-01T08:12:46;5.39;73.93
74940;HTU21D;63505;45.226;37.908;2023-03-01T08:15:12;5.47;73.75
74940;HTU21D;63505;45.226;37.908;2023-03-01T08:17:38;5.59;73.64
74940;HTU21D;63505;45.226;37.908;2023-03-01T08:20:04;5.56;73.36
74940;HTU21D;63505;45.226;37.908;2023-03-01T08:22:32;5.55;73.34
74940;HTU21D;63505;45.226;37.908;2023-03-01T08:24:58;5.51;73.12
74940;HTU21D;63505;45.226;37.908;2023-03-01T08:27:24;5.51;73.01
74940;HTU21D;63505;45.226;37.908;2023-03-01T08:29:49;5.51;72.87
74940;HTU21D;63505;45.226;37.908;2023-03-01T08:32:15;5.53;72.73
74940;HTU21D;63505;45.226;37.908;2023-03-01T08:34:41;5.51;72.49
74940;HTU21D;63505;45.226;37.908;2023-03-01T08:37:08;5.57;72.52
74940;HTU21D;63505;45.226;37.908;2023-03-01T08:39:34;5.71;72.29
74940;HTU21D;63505;45.226;37.908;2023-03-01T08:42:00;5.79;72.19
74940;HTU21D;63505;45.226;37.908;2023-03-01T08:44:25;5.90;72.06
74940;HTU21D;63505;45.226;37.908;2023-03-01T08:46:51;5.93;71.87
74940;HTU21D;63505;45.226;37.908;2023-03-01T08:49:20;5.97;71.70
74940;HTU21D;63505;45.226;37.908;2023-03-01T08:51:47;6.06;71.62
74940;HTU21D;63505;45.226;37.908;2023-03-01T08:54:16;6.09;71.51
74940;HTU21D;63505;45.226;37.908;2023-03-01T08:56:42;6.06;71.38
74940;HTU21D;63505;45.226;37.908;2023-03-01T08:59:09;6.10;71.45
74940;HTU21D;63505;45.226;37.908;2023-03-01T09:01:35;6.24;71.29
74940;HTU21D;63505;45.226;37.908;2023-03-01T09:04:02;6.29;71.03
74940;HTU21D;63505;45.226;37.908;2023-03-01T09:06:33;6.33;70.78
74940;HTU21D;63505;45.226;37.908;2023-03-01T09:09:00;6.49;70.67
74940;HTU21D;63505;45.226;37.908;2023-03-01T09:11:26;6.59;70.46
74940;HTU21D;63505;45.226;37.908;2023-03-01T09:13:53;6.70;70.26
74940;HTU21D;63505;45.226;37.908;2023-03-01T09:16:21;6.82;70.23
74940;HTU21D;63505;45.226;37.908;2023-03-01T09:18:52;6.76;69.87
74940;HTU21D;63505;45.226;37.908;2023-03-01T09:21:21;6.71;69.90
74940;HTU21D;63505;45.226;37.908;2023-03-01T09:23:48;6.61;69.89
74940;HTU21D;63505;45.226;37.908;2023-03-01T09:26:20;6.56;69.90
74940;HTU21D;63505;45.226;37.908;2023-03-01T09:28:48;6.55;69.97
74940;HTU21D;63505;45.226;37.908;2023-03-01T09:31:16;6.73;70.07
74940;HTU21D;63505;45.226;37.908;2023-03-01T09:33:44;6.94;69.87
74940;HTU21D;63505;45.226;37.908;2023-03-01T09:36:18;7.09;69.55
74940;HTU21D;63505;45.226;37.908;2023-03-01T09:38:45;7.14;69.55
74940;HTU21D;63505;45.226;37.908;2023-03-01T09:46:42;7.50;68.95
74940;HTU21D;63505;45.226;37.908;2023-03-01T09:49:18;7.49;68.73
74940;HTU21D;63505;45.226;37.908;2023-03-01T09:52:00;7.50;68.71
74940;HTU21D;63505;45.226;37.908;2023-03-01T09:54:28;7.44;68.68
74940;HTU21D;63505;45.226;37.908;2023-03-01T09:59:27;7.55;68.37
74940;HTU21D;63505;45.226;37.908;2023-03-01T10:05:43;7.55;68.00
74940;HTU21D;63505;45.226;37.908;2023-03-01T10:08:31;7.65;67.97
74940;HTU21D;63505;45.226;37.908;2023-03-01T10:11:03;7.94;67.65
74940;HTU21D;63505;45.226;37.908;2023-03-01T10:13:47;8.14;67.15
74940;HTU21D;63505;45.226;37.908;2023-03-01T10:16:26;8.34;66.81
74940;HTU21D;63505;45.226;37.908;2023-03-01T10:18:59;8.59;66.59
74940;HTU21D;63505;45.226;37.908;2023-03-01T10:21:27;8.75;66.05
74940;HTU21D;63505;45.226;37.908;2023-03-01T10:23:54;8.72;65.88
74940;HTU21D;63505;45.226;37.908;2023-03-01T10:26:47;8.60;65.80
74940;HTU21D;63505;45.226;37.908;2023-03-01T10:29:14;8.59;65.82
74940;HTU21D;63505;45.226;37.908;2023-03-01T10:31:49;8.56;65.53
74940;HTU21D;63505;45.226;37.908;2023-03-01T10:34:16;8.66;65.46
74940;HTU21D;63505;45.226;37.908;2023-03-01T10:36:44;8.79;65.04
74940;HTU21D;63505;45.226;37.908;2023-03-01T10:44:36;9.34;64.20
74940;HTU21D;63505;45.226;37.908;2023-03-01T10:47:03;9.65;63.97
74940;HTU21D;63505;45.226;37.908;2023-03-01T10:49:29;9.90;63.60
74940;HTU21D;63505;45.226;37.908;2023-03-01T10:51:55;9.94;63.24
74940;HTU21D;63505;45.226;37.908;2023-03-01T10:54:30;9.76;62.82
74940;HTU21D;63505;45.226;37.908;2023-03-01T10:57:04;9.59;62.97
74940;HTU21D;63505;45.226;37.908;2023-03-01T11:07:50;8.94;63.11
74940;HTU21D;63505;45.226;37.908;2023-03-01T11:10:18;8.97;62.93
74940;HTU21D;63505;45.226;37.908;2023-03-01T11:12:45;9.05;62.72
74940;HTU21D;63505;45.226;37.908;2023-03-01T11:15:26;9.19;62.47
74940;HTU21D;63505;45.226;37.908;2023-03-01T11:17:54;9.16;62.00
74940;HTU21D;63505;45.226;37.908;2023-03-01T11:20:32;9.07;62.02
74940;HTU21D;63505;45.226;37.908;2023-03-01T11:23:18;8.95;61.78
74940;HTU21D;63505;45.226;37.908;2023-03-01T11:25:57;8.76;61.68
74940;HTU21D;63505;45.226;37.908;2023-03-01T11:28:25;8.75;61.60
74940;HTU21D;63505;45.226;37.908;2023-03-01T11:31:07;8.65;61.28
74940;HTU21D;63505;45.226;37.908;2023-03-01T11:41:41;8.83;59.93
74940;HTU21D;63505;45.226;37.908;2023-03-01T11:44:22;8.85;59.70
74940;HTU21D;63505;45.226;37.908;2023-03-01T11:47:31;8.73;59.55
74940;HTU21D;63505;45.226;37.908;2023-03-01T11:50:15;8.66;59.72
74940;HTU21D;63505;45.226;37.908;2023-03-01T12:10:25;9.52;59.19
74940;HTU21D;63505;45.226;37.908;2023-03-01T12:29:20;11.24;58.10
74940;HTU21D;63505;45.226;37.908;2023-03-01T12:40:01;11.84;55.48
74940;HTU21D;63505;45.226;37.908;2023-03-01T12:42:51;11.69;54.68
74940;HTU21D;63505;45.226;37.908;2023-03-01T12:50:46;10.69;54.10
74940;HTU21D;63505;45.226;37.908;2023-03-01T12:55:45;9.76;55.20
74940;HTU21D;63505;45.226;37.908;2023-03-01T13:06:13;9.35;55.57
74940;HTU21D;63505;45.226;37.908;2023-03-01T13:11:53;8.88;54.52
74940;HTU21D;63505;45.226;37.908;2023-03-01T13:16:51;8.55;54.41
74940;HTU21D;63505;45.226;37.908;2023-03-01T13:19:25;8.35;54.62
74940;HTU21D;63505;45.226;37.908;2023-03-01T13:21:54;8.17;54.59
74940;HTU21D;63505;45.226;37.908;2023-03-01T13:24:28;7.94;54.84
74940;HTU21D;63505;45.226;37.908;2023-03-01T13:32:22;7.55;55.31
74940;HTU21D;63505;45.226;37.908;2023-03-01T13:34:57;7.42;55.56
74940;HTU21D;63505;45.226;37.908;2023-03-01T13:37:32;7.37;55.82
74940;HTU21D;63505;45.226;37.908;2023-03-01T13:40:01;7.27;55.87
74940;HTU21D;63505;45.226;37.908;2023-03-01T13:42:48;7.10;56.02
74940;HTU21D;63505;45.226;37.908;2023-03-01T13:45:37;6.90;56.23
74940;HTU21D;63505;45.226;37.908;2023-03-01T13:48:25;6.70;56.28
74940;HTU21D;63505;45.226;37.908;2023-03-01T13:50:55;6.55;56.42
74940;HTU21D;63505;45.226;37.908;2023-03-01T13:53:25;6.44;56.65
74940;HTU21D;63505;45.226;37.908;2023-03-01T13:55:56;6.40;56.77
74940;HTU21D;63505;45.226;37.908;2023-03-01T13:58:30;6.31;56.84
74940;HTU21D;63505;45.226;37.908;2023-03-01T14:01:06;6.24;56.86
74940;HTU21D;63505;45.226;37.908;2023-03-01T14:03:41;6.09;56.88
74940;HTU21D;63505;45.226;37.908;2023-03-01T14:06:09;5.98;56.89
74940;HTU21D;63505;45.226;37.908;2023-03-01T14:08:38;5.85;57.00
74940;HTU21D;63505;45.226;37.908;2023-03-01T14:11:35;5.74;57.09
74940;HTU21D;63505;45.226;37.908;2023-03-01T14:17:12;5.56;57.48
74940;HTU21D;63505;45.226;37.908;2023-03-01T14:19:41;5.52;57.67
74940;HTU21D;63505;45.226;37.908;2023-03-01T14:24:51;5.50;57.91
74940;HTU21D;63505;45.226;37.908;2023-03-01T14:27:17;5.46;58.09
74940;HTU21D;63505;45.226;37.908;2023-03-01T14:29:45;5.37;58.26
74940;HTU21D;63505;45.226;37.908;2023-03-01T14:32:21;5.30;58.45
74940;HTU21D;63505;45.226;37.908;2023-03-01T14:34:49;5.20;58.74
74940;HTU21D;63505;45.226;37.908;2023-03-01T14:37:34;5.10;58.98
74940;HTU21D;63505;45.226;37.908;2023-03-01T14:40:02;5.03;59.16
74940;HTU21D;63505;45.226;37.908;2023-03-01T14:42:30;4.97;59.34
74940;HTU21D;63505;45.226;37.908;2023-03-01T14:44:58;4.92;59.42
74940;HTU21D;63505;45.226;37.908;2023-03-01T14:47:32;4.86;59.64
74940;HTU21D;63505;45.226;37.908;2023-03-01T14:50:23;4.77;59.81
74940;HTU21D;63505;45.226;37.908;2023-03-01T14:52:53;4.72;59.97
74940;HTU21D;63505;45.226;37.908;2023-03-01T14:55:23;4.67;60.11
74940;HTU21D;63505;45.226;37.908;2023-03-01T14:57:52;4.64;60.18
74940;HTU21D;63505;45.226;37.908;2023-03-01T15:00:24;4.59;60.33
74940;HTU21D;63505;45.226;37.908;2023-03-01T15:02:52;4.56;60.49
74940;HTU21D;63505;45.226;37.908;2023-03-01T15:05:39;4.52;60.65
74940;HTU21D;63505;45.226;37.908;2023-03-01T15:08:05;4.49;60.77
74940;HTU21D;63505;45.226;37.908;2023-03-01T15:10:36;4.46;60.87
74940;HTU21D;63505;45.226;37.908;2023-03-01T15:15:44;4.33;61.19
74940;HTU21D;63505;45.226;37.908;2023-03-01T15:18:21;4.31;61.23
74940;HTU21D;63505;45.226;37.908;2023-03-01T15:20:48;4.28;61.31
74940;HTU21D;63505;45.226;37.908;2023-03-01T15:23:23;4.24;61.38
74940;HTU21D;63505;45.226;37.908;2023-03-01T15:25:51;4.21;61.47
74940;HTU21D;63505;45.226;37.908;2023-03-01T15:28:30;4.14;61.58
74940;HTU21D;63505;45.226;37.908;2023-03-01T15:31:20;4.06;61.74
74940;HTU21D;63505;45.226;37.908;2023-03-01T15:33:47;4.00;61.84
74940;HTU21D;63505;45.226;37.908;2023-03-01T15:36:43;3.92;62.02
74940;HTU21D;63505;45.226;37.908;2023-03-01T15:41:54;3.79;62.38
74940;HTU21D;63505;45.226;37.908;2023-03-01T15:44:31;3.74;62.44
74940;HTU21D;63505;45.226;37.908;2023-03-01T15:46:58;3.69;62.52
74940;HTU21D;63505;45.226;37.908;2023-03-01T15:49:41;3.62;62.60
74940;HTU21D;63505;45.226;37.908;2023-03-01T15:52:19;3.58;62.65
74940;HTU21D;63505;45.226;37.908;2023-03-01T15:54:47;3.49;62.73
74940;HTU21D;63505;45.226;37.908;2023-03-01T15:57:13;3.45;62.93
74940;HTU21D;63505;45.226;37.908;2023-03-01T15:59:41;3.40;62.99
74940;HTU21D;63505;45.226;37.908;2023-03-01T16:02:09;3.39;63.11
74940;HTU21D;63505;45.226;37.908;2023-03-01T16:04:38;3.40;63.16
74940;HTU21D;63505;45.226;37.908;2023-03-01T16:07:04;3.36;63.16
74940;HTU21D;63505;45.226;37.908;2023-03-01T16:09:30;3.28;63.19
74940;HTU21D;63505;45.226;37.908;2023-03-01T16:11:56;3.23;63.45
74940;HTU21D;63505;45.226;37.908;2023-03-01T16:14:22;3.18;63.53
74940;HTU21D;63505;45.226;37.908;2023-03-01T16:16:48;3.17;63.56
74940;HTU21D;63505;45.226;37.908;2023-03-01T16:19:15;3.14;63.61
74940;HTU21D;63505;45.226;37.908;2023-03-01T16:21:42;3.12;63.68
74940;HTU21D;63505;45.226;37.908;2023-03-01T16:24:09;3.03;63.82
74940;HTU21D;63505;45.226;37.908;2023-03-01T16:26:36;2.89;64.74
74940;HTU21D;63505;45.226;37.908;2023-03-01T16:29:03;2.80;65.46
74940;HTU21D;63505;45.226;37.908;2023-03-01T16:31:29;2.71;66.08
74940;HTU21D;63505;45.226;37.908;2023-03-01T16:33:58;2.66;66.40
74940;HTU21D;63505;45.226;37.908;2023-03-01T16:36:25;2.64;66.65
74940;HTU21D;63505;45.226;37.908;2023-03-01T16:38:52;2.61;66.87
74940;HTU21D;63505;45.226;37.908;2023-03-01T16:41:20;2.60;66.91
74940;HTU21D;63505;45.226;37.908;2023-03-01T16:43:46;2.56;66.94
74940;HTU21D;63505;45.226;37.908;2023-03-01T16:46:18;2.51;66.97
74940;HTU21D;63505;45.226;37.908;2023-03-01T16:48:45;2.43;67.05
74940;HTU21D;63505;45.226;37.908;2023-03-01T16:51:12;2.36;67.40
74940;HTU21D;63505;45.226;37.908;2023-03-01T16:53:39;2.32;67.68
74940;HTU21D;63505;45.226;37.908;2023-03-01T16:56:08;2.28;67.95
74940;HTU21D;63505;45.226;37.908;2023-03-01T16:58:38;2.25;68.37
74940;HTU21D;63505;45.226;37.908;2023-03-01T17:01:18;2.22;68.49
74940;HTU21D;63505;45.226;37.908;2023-03-01T17:03:46;2.19;68.78
74940;HTU21D;63505;45.226;37.908;2023-03-01T17:06:14;2.20;68.94
74940;HTU21D;63505;45.226;37.908;2023-03-01T17:08:41;2.20;69.13
74940;HTU21D;63505;45.226;37.908;2023-03-01T17:11:15;2.19;69.36
74940;HTU21D;63505;45.226;37.908;2023-03-01T17:13:41;2.16;69.64
74940;HTU21D;63505;45.226;37.908;2023-03-01T17:16:10;2.12;69.65
74940;HTU21D;63505;45.226;37.908;2023-03-01T17:18:36;2.12;69.62
74940;HTU21D;63505;45.226;37.908;2023-03-01T17:21:03;2.13;69.54
74940;HTU21D;63505;45.226;37.908;2023-03-01T17:23:31;2.09;69.36
74940;HTU21D;63505;45.226;37.908;2023-03-01T17:25:57;2.00;69.45
74940;HTU21D;63505;45.226;37.908;2023-03-01T17:28:26;1.95;69.56
74940;HTU21D;63505;45.226;37.908;2023-03-01T17:30:52;1.93;69.71
74940;HTU21D;63505;45.226;37.908;2023-03-01T17:33:19;1.91;69.84
74940;HTU21D;63505;45.226;37.908;2023-03-01T17:35:45;1.91;69.90
74940;HTU21D;63505;45.226;37.908;2023-03-01T17:38:13;1.90;70.12
74940;HTU21D;63505;45.226;37.908;2023-03-01T17:40:41;1.88;70.14